Time;durP1;ratioP1;P1;durP2;ratioP2;P2;SDS_P1;SDS_P2;PMS_P1;PMS_P2;Temp;Humidity;BMP_temperature;BMP_pressure;BME280_temperature;BME280_humidity;BME280_pressure;Samples;Min_cycle;Max_cycle;Signal;HPM_P1;HPM_P2
2022/03/20 00:01:02;;;;;;;120.40;50.30;;;0.60;83.80;;;;;;5052950;28;20209;-66
2022/03/20 00:03:30;;;;;;;121.67;52.30;;;0.60;83.70;;;;;;5052856;28;20201;-66
2022/03/20 00:05:59;;;;;;;125.50;51.03;;;0.60;83.90;;;;;;5052618;28;20209;-66
2022/03/20 00:08:26;;;;;;;122.07;50.03;;;0.50;84.30;;;;;;5052267;28;20710;-67
2022/03/20 00:10:55;;;;;;;124.23;51.73;;;0.50;84.70;;;;;;5052732;28;20232;-66
2022/03/20 00:13:24;;;;;;;120.23;51.43;;;0.50;85.00;;;;;;5052890;28;20309;-66
2022/03/20 00:15:54;;;;;;;136.40;52.13;;;0.40;85.40;;;;;;5052811;28;20206;-67
2022/03/20 00:18:23;;;;;;;134.30;51.40;;;0.40;85.60;;;;;;5052642;28;20200;-67
2022/03/20 00:20:53;;;;;;;135.87;52.53;;;0.30;86.00;;;;;;5052736;28;20702;-67
2022/03/20 00:23:22;;;;;;;138.30;53.20;;;0.20;86.20;;;;;;5052709;28;20220;-66
2022/03/20 00:25:49;;;;;;;137.90;53.13;;;0.20;86.50;;;;;;5052491;28;20209;-66
2022/03/20 00:28:17;;;;;;;125.87;51.30;;;0.20;86.60;;;;;;5052286;28;20217;-67
2022/03/20 00:30:46;;;;;;;118.23;50.87;;;0.20;86.80;;;;;;5052150;28;20213;-66
2022/03/20 00:33:15;;;;;;;125.63;50.57;;;0.10;87.00;;;;;;5052667;28;20638;-67
2022/03/20 00:35:42;;;;;;;118.00;49.27;;;0.10;87.30;;;;;;5052063;28;20220;-67
2022/03/20 00:38:10;;;;;;;101.13;45.40;;;0.00;87.90;;;;;;5052436;28;20272;-66
2022/03/20 00:40:37;;;;;;;104.53;44.93;;;0.00;88.00;;;;;;5051877;28;20236;-66
2022/03/20 00:43:05;;;;;;;96.40;42.17;;;0.00;88.70;;;;;;5052411;28;20205;-66
2022/03/20 00:45:32;;;;;;;93.67;43.27;;;-0.10;89.30;;;;;;5051901;28;20316;-66
2022/03/20 00:47:59;;;;;;;96.80;42.27;;;-0.10;89.60;;;;;;5051938;28;20226;-66
2022/03/20 00:50:28;;;;;;;96.07;42.17;;;-0.10;89.80;;;;;;5052131;28;20209;-68
2022/03/20 00:52:55;;;;;;;97.63;42.73;;;-0.10;90.10;;;;;;5051851;28;20212;-66
2022/03/20 00:55:23;;;;;;;99.07;42.23;;;-0.10;90.10;;;;;;5052247;28;20589;-66
2022/03/20 00:57:50;;;;;;;93.40;42.03;;;-0.10;90.20;;;;;;5052109;28;20640;-66
2022/03/20 01:00:17;;;;;;;90.20;41.70;;;-0.20;90.40;;;;;;5051636;28;20210;-66
2022/03/20 01:02:45;;;;;;;100.67;42.90;;;-0.20;90.60;;;;;;5052286;28;20189;-67
2022/03/20 01:05:13;;;;;;;88.70;40.23;;;-0.20;90.90;;;;;;5051899;28;20213;-67
2022/03/20 01:07:42;;;;;;;99.07;41.20;;;-0.20;90.90;;;;;;5051716;28;20236;-67
2022/03/20 01:10:11;;;;;;;81.87;39.33;;;-0.20;91.00;;;;;;5052096;28;20625;-67
2022/03/20 01:12:39;;;;;;;89.03;38.87;;;-0.20;91.20;;;;;;5051953;28;20587;-65
2022/03/20 01:15:08;;;;;;;86.17;40.73;;;-0.20;91.30;;;;;;5051666;28;20251;-66
2022/03/20 01:17:35;;;;;;;96.57;40.37;;;-0.20;91.50;;;;;;5051680;28;20206;-66
2022/03/20 01:20:02;;;;;;;91.17;39.47;;;-0.20;91.60;;;;;;5052077;28;20537;-67
2022/03/20 01:22:29;;;;;;;93.30;40.63;;;-0.20;91.80;;;;;;5051725;28;20216;-67
2022/03/20 01:24:58;;;;;;;98.50;43.50;;;-0.30;91.80;;;;;;5051586;28;20209;-66
2022/03/20 01:27:25;;;;;;;102.57;43.33;;;-0.30;92.20;;;;;;5051470;28;20209;-66
2022/03/20 01:29:52;;;;;;;111.43;45.17;;;-0.30;92.30;;;;;;5051492;28;20201;-67
2022/03/20 01:32:19;;;;;;;110.17;46.00;;;-0.30;92.50;;;;;;5051625;28;20205;-67
2022/03/20 01:34:47;;;;;;;113.00;48.27;;;-0.20;92.60;;;;;;5051464;28;20205;-67
2022/03/20 01:37:14;;;;;;;145.27;54.33;;;-0.20;92.70;;;;;;5051544;28;20201;-66
2022/03/20 01:39:41;;;;;;;135.80;53.33;;;-0.20;92.80;;;;;;5051324;28;20237;-67
2022/03/20 01:42:10;;;;;;;131.27;52.93;;;-0.20;92.90;;;;;;5051204;28;20224;-67
2022/03/20 01:44:37;;;;;;;160.63;56.77;;;-0.20;93.00;;;;;;5051705;28;20211;-67
2022/03/20 01:47:06;;;;;;;151.23;57.80;;;-0.20;93.10;;;;;;5051335;28;20209;-67
2022/03/20 01:49:33;;;;;;;149.57;58.13;;;-0.20;93.10;;;;;;5051379;28;20221;-67
2022/03/20 01:52:13;;;;;;;164.87;58.80;;;-0.20;93.30;;;;;;5051299;28;20475;-67
2022/03/20 01:54:44;;;;;;;140.10;56.63;;;-0.20;93.30;;;;;;5051510;28;20256;-65
2022/03/20 01:57:16;;;;;;;134.60;54.03;;;-0.20;93.40;;;;;;5051269;28;20186;-66
2022/03/20 01:59:43;;;;;;;129.40;49.00;;;-0.30;93.40;;;;;;5051467;28;20190;-67
2022/03/20 02:02:11;;;;;;;118.87;49.30;;;-0.20;93.40;;;;;;5051003;28;20205;-66
2022/03/20 02:04:39;;;;;;;142.40;51.47;;;-0.30;93.40;;;;;;5051199;28;20251;-66
2022/03/20 02:07:07;;;;;;;122.60;48.50;;;-0.30;93.50;;;;;;5051316;28;20596;-67
2022/03/20 02:09:36;;;;;;;108.00;46.70;;;-0.30;93.60;;;;;;5051029;28;20221;-66
2022/03/20 02:12:04;;;;;;;123.63;50.43;;;-0.30;93.70;;;;;;5051163;28;20233;-67
2022/03/20 02:14:34;;;;;;;127.50;49.37;;;-0.30;93.90;;;;;;5051102;28;20205;-66
2022/03/20 02:17:02;;;;;;;129.20;50.60;;;-0.30;94.00;;;;;;5051074;28;20189;-66
2022/03/20 02:19:29;;;;;;;109.73;47.03;;;-0.40;94.10;;;;;;5051084;28;20206;-66
2022/03/20 02:21:58;;;;;;;119.90;49.00;;;-0.40;94.30;;;;;;5050891;28;20212;-66
2022/03/20 02:24:38;;;;;;;115.03;49.13;;;-0.50;94.30;;;;;;5050850;28;20209;-68
2022/03/20 02:27:12;;;;;;;119.10;50.97;;;-0.40;94.30;;;;;;5050838;28;20628;-66
2022/03/20 02:29:40;;;;;;;106.03;47.20;;;-0.50;94.40;;;;;;5050866;28;20256;-68
2022/03/20 02:32:09;;;;;;;112.03;45.87;;;-0.50;94.40;;;;;;5054008;28;20209;-67
2022/03/20 02:34:37;;;;;;;95.20;43.97;;;-0.50;94.40;;;;;;5054384;28;20210;-66
2022/03/20 02:37:08;;;;;;;83.43;40.17;;;-0.50;94.40;;;;;;5054600;28;20227;-66
2022/03/20 02:39:36;;;;;;;88.50;40.60;;;-0.60;94.40;;;;;;5054379;28;20328;-67
2022/03/20 02:42:05;;;;;;;98.77;41.40;;;-0.60;94.50;;;;;;5054424;28;20205;-67
2022/03/20 02:44:52;;;;;;;93.90;41.73;;;-0.60;94.80;;;;;;5054501;28;20561;-67
2022/03/20 02:47:23;;;;;;;85.73;42.37;;;-0.70;94.60;;;;;;5054338;28;20667;-66
2022/03/20 02:49:53;;;;;;;102.37;43.57;;;-0.70;94.70;;;;;;5054135;28;20300;-66
2022/03/20 02:52:26;;;;;;;97.07;43.80;;;-0.70;94.70;;;;;;5054007;28;20209;-66
2022/03/20 02:54:53;;;;;;;90.13;41.37;;;-0.70;94.80;;;;;;5054362;28;20232;-67
2022/03/20 02:57:21;;;;;;;88.83;41.63;;;-0.70;94.90;;;;;;5054257;28;20205;-67
2022/03/20 02:59:48;;;;;;;87.73;40.87;;;-0.70;94.90;;;;;;5054349;28;20201;-66
2022/03/20 03:02:15;;;;;;;99.37;41.20;;;-0.80;95.00;;;;;;5053931;28;20201;-66
2022/03/20 03:04:42;;;;;;;92.13;41.87;;;-0.80;95.10;;;;;;5054184;28;20217;-66
2022/03/20 03:07:10;;;;;;;101.23;45.00;;;-0.80;95.10;;;;;;5054119;28;20209;-67
2022/03/20 03:12:22;;;;;;;96.17;42.57;;;-0.90;95.60;;;;;;5053928;28;20222;-68
2022/03/20 03:17:34;;;;;;;84.17;39.37;;;-0.90;95.80;;;;;;5053757;28;20646;-67
2022/03/20 03:20:02;;;;;;;87.10;38.77;;;-0.90;95.90;;;;;;5053638;28;20216;-67
2022/03/20 03:22:29;;;;;;;91.07;41.30;;;-0.90;95.90;;;;;;5053676;28;20209;-67
2022/03/20 03:24:58;;;;;;;96.33;41.47;;;-0.90;96.00;;;;;;5053430;28;20215;-67
2022/03/20 03:27:25;;;;;;;90.77;40.97;;;-0.90;96.20;;;;;;5053574;28;20216;-67
2022/03/20 03:29:52;;;;;;;86.20;38.33;;;-0.90;96.20;;;;;;5053891;28;20572;-68
2022/03/20 03:32:20;;;;;;;72.17;35.40;;;-0.90;96.30;;;;;;5053798;28;20296;-66
2022/03/20 03:37:32;;;;;;;68.73;32.33;;;-1.00;96.10;;;;;;5053470;28;20605;-66
2022/03/20 03:40:01;;;;;;;69.07;32.57;;;-1.00;96.10;;;;;;5053195;28;20236;-66
2022/03/20 03:42:29;;;;;;;67.53;30.80;;;-1.00;96.50;;;;;;5052443;28;20221;-66
2022/03/20 03:44:56;;;;;;;70.63;31.43;;;-1.00;96.20;;;;;;5053016;28;20241;-67
2022/03/20 03:47:25;;;;;;;67.80;31.80;;;-1.10;96.20;;;;;;5053149;28;20212;-66
2022/03/20 03:49:53;;;;;;;62.67;28.50;;;-1.00;96.30;;;;;;5052981;28;20228;-66
2022/03/20 03:52:20;;;;;;;73.13;34.43;;;-1.10;96.20;;;;;;5053289;28;20216;-67
2022/03/20 03:54:48;;;;;;;86.33;38.97;;;-1.10;96.30;;;;;;5053054;28;20212;-67
2022/03/20 03:57:19;;;;;;;85.50;40.43;;;-1.20;96.40;;;;;;5053283;28;20203;-67
2022/03/20 03:59:47;;;;;;;97.37;43.97;;;-1.20;96.40;;;;;;5053211;28;20559;-66
2022/03/20 04:02:14;;;;;;;110.43;47.77;;;-1.20;96.40;;;;;;5052776;28;20267;-67
2022/03/20 04:04:42;;;;;;;100.87;44.53;;;-1.20;96.50;;;;;;5053088;28;20659;-67
2022/03/20 04:07:10;;;;;;;98.13;46.20;;;-1.20;96.50;;;;;;5052601;28;20216;-66
2022/03/20 04:09:37;;;;;;;97.07;42.73;;;-1.30;96.60;;;;;;5052623;28;20221;-66
2022/03/20 04:12:05;;;;;;;96.37;44.93;;;-1.20;96.60;;;;;;5052699;28;20595;-66
2022/03/20 04:14:34;;;;;;;97.83;44.30;;;-1.20;96.50;;;;;;5052485;28;20208;-66
2022/03/20 04:17:03;;;;;;;93.00;42.30;;;-1.20;96.60;;;;;;5052399;28;20205;-67
2022/03/20 04:19:30;;;;;;;87.47;38.77;;;-1.20;96.70;;;;;;5052808;28;20201;-67
2022/03/20 04:21:57;;;;;;;75.33;35.87;;;-1.30;96.70;;;;;;5052312;28;20216;-66
2022/03/20 04:24:24;;;;;;;76.30;35.10;;;-1.30;96.80;;;;;;5052469;28;20213;-66
2022/03/20 04:26:52;;;;;;;73.87;35.17;;;-1.30;96.90;;;;;;5052595;28;20674;-68
2022/03/20 04:29:20;;;;;;;68.47;34.73;;;-1.40;96.90;;;;;;5052608;28;20252;-67
2022/03/20 04:31:49;;;;;;;72.30;34.23;;;-1.40;97.00;;;;;;5052488;28;20255;-67
2022/03/20 04:34:16;;;;;;;73.03;35.23;;;-1.40;97.40;;;;;;5052235;28;20214;-67
2022/03/20 04:36:44;;;;;;;66.83;33.40;;;-1.40;97.10;;;;;;5052114;28;20202;-68
2022/03/20 04:39:11;;;;;;;67.67;32.97;;;-1.40;97.20;;;;;;5051957;28;20233;-66
2022/03/20 04:41:38;;;;;;;73.60;34.80;;;-1.40;97.30;;;;;;5052186;28;20205;-68
2022/03/20 04:44:12;;;;;;;67.03;32.57;;;-1.40;97.40;;;;;;5051961;28;20209;-66
2022/03/20 04:46:39;;;;;;;64.93;31.27;;;-1.50;97.60;;;;;;5052436;28;20659;-66
2022/03/20 05:00:07;;;;;;;64.90;30.17;;;-1.50;98.30;;;;;;5052289;28;20181;-68
2022/03/20 05:02:35;;;;;;;57.00;29.40;;;-1.50;98.50;;;;;;5052073;28;20682;-65
2022/03/20 05:05:04;;;;;;;61.80;29.37;;;-1.50;98.50;;;;;;5051970;28;20205;-66
2022/03/20 05:07:32;;;;;;;56.87;28.53;;;-1.50;98.60;;;;;;5051709;28;20209;-66
2022/03/20 05:15:30;;;;;;;56.10;27.90;;;-1.40;98.80;;;;;;5051698;28;20216;-67
2022/03/20 05:17:57;;;;;;;52.83;27.67;;;-1.30;99.00;;;;;;5051717;28;20661;-66
2022/03/20 05:20:26;;;;;;;60.87;27.43;;;-1.30;98.90;;;;;;5051548;28;20236;-66
2022/03/20 05:22:53;;;;;;;59.70;28.57;;;-1.20;98.90;;;;;;5051839;28;20693;-67
2022/03/20 05:25:21;;;;;;;60.00;29.33;;;-1.20;98.90;;;;;;5051502;28;20205;-68
2022/03/20 05:27:48;;;;;;;62.40;29.57;;;-1.10;99.00;;;;;;5051591;28;20206;-66
2022/03/20 05:30:15;;;;;;;61.03;28.33;;;-1.10;99.00;;;;;;5051248;28;20221;-66
2022/03/20 05:32:42;;;;;;;54.97;27.17;;;-1.00;99.00;;;;;;5051557;28;20563;-67
2022/03/20 05:35:10;;;;;;;56.90;28.37;;;-0.90;98.90;;;;;;5051662;28;20201;-67
2022/03/20 05:37:39;;;;;;;64.17;28.70;;;-0.90;98.90;;;;;;5051515;28;20258;-67
2022/03/20 05:40:07;;;;;;;63.13;28.17;;;-0.80;99.10;;;;;;5051563;28;20252;-67
2022/03/20 05:42:35;;;;;;;53.97;27.07;;;-0.70;98.70;;;;;;5051306;28;20211;-68
2022/03/20 05:45:03;;;;;;;64.63;28.27;;;-0.60;98.40;;;;;;5051307;28;20339;-68
2022/03/20 05:47:31;;;;;;;68.83;30.03;;;-0.50;98.30;;;;;;5051260;28;20205;-67
2022/03/20 05:49:59;;;;;;;69.90;31.20;;;-0.40;98.00;;;;;;5051349;28;20279;-66
2022/03/20 05:52:27;;;;;;;90.20;35.23;;;-0.30;97.60;;;;;;5051247;28;20208;-67
2022/03/20 05:54:55;;;;;;;79.33;34.50;;;-0.20;97.30;;;;;;5051044;28;20255;-67
2022/03/20 06:00:16;;;;;;;101.30;36.97;;;0.00;97.60;;;;;;5051089;28;20184;-67
2022/03/20 06:02:44;;;;;;;97.23;37.67;;;0.10;97.10;;;;;;5050838;28;20280;-66
2022/03/20 06:05:11;;;;;;;98.30;38.67;;;0.20;97.10;;;;;;5051541;28;20232;-66
2022/03/20 06:07:42;;;;;;;90.33;38.30;;;0.20;97.00;;;;;;5055130;28;20562;-67
2022/03/20 06:10:12;;;;;;;94.00;38.60;;;0.30;96.90;;;;;;5055053;28;20253;-68
2022/03/20 06:12:39;;;;;;;102.30;40.20;;;0.40;96.70;;;;;;5054520;28;20220;-67
2022/03/20 06:15:09;;;;;;;112.20;42.73;;;0.50;96.40;;;;;;5055110;28;20558;-67
2022/03/20 06:17:41;;;;;;;109.77;43.27;;;0.50;96.30;;;;;;5054694;28;20206;-67
2022/03/20 06:20:10;;;;;;;115.30;43.70;;;0.60;96.70;;;;;;5054678;28;20204;-68
2022/03/20 06:22:37;;;;;;;136.83;47.73;;;0.70;96.30;;;;;;5054515;28;20217;-67
2022/03/20 06:25:08;;;;;;;130.77;49.10;;;0.70;96.00;;;;;;5055140;28;20694;-67
2022/03/20 06:27:48;;;;;;;127.30;47.70;;;0.80;96.00;;;;;;5054755;28;20190;-66
2022/03/20 06:30:16;;;;;;;137.57;48.07;;;0.80;95.80;;;;;;5054529;28;20255;-67
2022/03/20 06:32:45;;;;;;;126.83;46.13;;;0.90;95.80;;;;;;5054649;28;20635;-68
2022/03/20 06:35:13;;;;;;;133.60;47.17;;;0.90;95.70;;;;;;5054433;28;20213;-66
2022/03/20 06:37:41;;;;;;;123.80;45.10;;;1.00;95.60;;;;;;5054489;28;20304;-66
2022/03/20 06:40:09;;;;;;;119.83;46.07;;;1.10;95.50;;;;;;5054236;28;20581;-67
2022/03/20 06:42:37;;;;;;;132.90;47.83;;;1.20;95.50;;;;;;5054528;28;20563;-66
2022/03/20 06:45:08;;;;;;;122.27;46.93;;;1.30;95.30;;;;;;5054314;28;20210;-68
2022/03/20 06:47:35;;;;;;;112.90;44.00;;;1.30;95.40;;;;;;5054401;28;20193;-67
2022/03/20 06:50:03;;;;;;;109.03;43.23;;;1.40;95.40;;;;;;5054131;28;20236;-68
2022/03/20 06:52:31;;;;;;;106.33;41.77;;;1.50;95.20;;;;;;5054209;28;20244;-67
2022/03/20 06:54:59;;;;;;;121.57;43.53;;;1.60;95.30;;;;;;5054126;28;20208;-67
2022/03/20 06:57:27;;;;;;;115.90;43.30;;;1.70;94.90;;;;;;5054223;28;20201;-67
2022/03/20 06:59:56;;;;;;;108.33;42.60;;;1.80;94.90;;;;;;5054312;28;20231;-67
2022/03/20 07:02:25;;;;;;;123.27;43.53;;;1.90;94.90;;;;;;5053953;28;20296;-68
2022/03/20 07:04:53;;;;;;;103.23;41.60;;;2.00;94.70;;;;;;5054124;28;20683;-67
2022/03/20 07:07:20;;;;;;;107.10;40.40;;;2.10;94.40;;;;;;5054088;28;20205;-67
2022/03/20 07:09:47;;;;;;;108.27;41.40;;;2.10;94.10;;;;;;5053960;28;20221;-67
2022/03/20 07:12:15;;;;;;;96.77;39.10;;;2.20;94.00;;;;;;5053812;28;20205;-67
2022/03/20 07:14:42;;;;;;;107.80;40.63;;;2.20;94.10;;;;;;5053851;28;20205;-66
2022/03/20 07:17:12;;;;;;;97.93;41.20;;;2.40;94.00;;;;;;5053544;28;20206;-67
2022/03/20 07:19:43;;;;;;;104.30;40.33;;;2.40;94.00;;;;;;5054054;28;20554;-67
2022/03/20 07:22:11;;;;;;;92.80;38.60;;;2.50;93.80;;;;;;5053846;28;20637;-66
2022/03/20 07:24:40;;;;;;;90.43;35.73;;;2.70;93.80;;;;;;5053689;28;20569;-67
2022/03/20 07:29:52;;;;;;;102.40;39.90;;;2.90;93.60;;;;;;5053926;28;20347;-66
2022/03/20 07:32:19;;;;;;;88.50;34.70;;;3.00;93.30;;;;;;5053388;28;20201;-67
2022/03/20 07:34:48;;;;;;;81.83;32.83;;;3.10;93.10;;;;;;5053745;28;20674;-68
2022/03/20 07:37:18;;;;;;;88.43;35.27;;;3.20;92.90;;;;;;5053441;28;20668;-67
2022/03/20 07:39:46;;;;;;;83.70;32.57;;;3.30;92.90;;;;;;5053209;28;20777;-66
2022/03/20 07:42:13;;;;;;;79.83;31.40;;;3.40;92.70;;;;;;5053620;28;20709;-66
2022/03/20 07:44:40;;;;;;;86.30;31.27;;;3.50;92.30;;;;;;5053329;28;20631;-67
2022/03/20 07:47:09;;;;;;;76.77;30.17;;;3.60;92.20;;;;;;5053038;28;20216;-66
2022/03/20 07:49:37;;;;;;;71.77;28.30;;;3.70;92.10;;;;;;5052843;28;20221;-68
2022/03/20 07:52:07;;;;;;;71.23;28.87;;;3.80;92.00;;;;;;5053440;28;20259;-66
2022/03/20 07:54:36;;;;;;;62.60;26.80;;;3.90;91.90;;;;;;5053161;28;20568;-66
2022/03/20 07:57:03;;;;;;;63.90;28.40;;;4.00;91.70;;;;;;5052815;28;20214;-67
2022/03/20 07:59:31;;;;;;;60.30;26.73;;;4.10;91.70;;;;;;5052728;28;20208;-68
2022/03/20 08:01:58;;;;;;;72.87;26.63;;;4.20;91.70;;;;;;5053083;28;20205;-68
2022/03/20 08:04:26;;;;;;;60.00;24.97;;;4.30;91.60;;;;;;5052705;28;20209;-67
2022/03/20 08:06:53;;;;;;;66.10;26.40;;;4.40;91.40;;;;;;5052729;28;20216;-67
2022/03/20 08:09:21;;;;;;;47.50;20.23;;;4.50;91.40;;;;;;5052736;28;20232;-66
2022/03/20 08:11:48;;;;;;;43.43;19.20;;;4.70;91.20;;;;;;5052548;28;20226;-66
2022/03/20 08:14:15;;;;;;;47.47;19.83;;;4.70;91.20;;;;;;5052719;28;20220;-66
2022/03/20 08:16:42;;;;;;;42.33;18.17;;;4.90;91.10;;;;;;5052819;28;20208;-68
2022/03/20 08:19:11;;;;;;;43.90;18.50;;;5.00;90.90;;;;;;5052556;28;20209;-67
2022/03/20 08:21:39;;;;;;;34.07;16.43;;;5.10;90.70;;;;;;5052724;28;20205;-69
2022/03/20 08:24:07;;;;;;;35.70;16.83;;;5.10;90.50;;;;;;5052335;28;20210;-66
2022/03/20 08:26:36;;;;;;;36.87;17.77;;;5.20;90.60;;;;;;5052477;28;20201;-67
2022/03/20 08:29:04;;;;;;;36.07;17.40;;;5.30;90.60;;;;;;5051989;28;20209;-67
2022/03/20 08:31:33;;;;;;;35.80;16.17;;;5.40;90.30;;;;;;5052134;28;20236;-66
2022/03/20 08:34:01;;;;;;;23.93;12.17;;;5.50;90.20;;;;;;5052590;28;20201;-66
2022/03/20 08:36:28;;;;;;;23.03;12.33;;;5.60;90.00;;;;;;5052050;28;20209;-68
2022/03/20 08:38:56;;;;;;;21.37;11.67;;;5.70;90.00;;;;;;5052147;28;20237;-66
2022/03/20 08:41:23;;;;;;;16.10;7.83;;;5.80;90.10;;;;;;5051989;28;20236;-66
2022/03/20 08:43:51;;;;;;;12.57;6.83;;;5.90;89.20;;;;;;5052027;28;20213;-66
2022/03/20 08:46:18;;;;;;;11.63;7.20;;;6.00;89.50;;;;;;5051828;28;20209;-67
2022/03/20 08:48:45;;;;;;;12.47;7.10;;;6.10;88.80;;;;;;5051953;28;20207;-66
2022/03/20 08:51:13;;;;;;;11.13;6.67;;;6.20;89.60;;;;;;5051616;28;20236;-67
2022/03/20 08:53:40;;;;;;;11.07;7.00;;;6.40;87.80;;;;;;5052038;28;20201;-66
2022/03/20 08:56:07;;;;;;;10.40;6.43;;;6.50;86.60;;;;;;5051822;28;20205;-66
2022/03/20 08:58:34;;;;;;;14.27;7.70;;;6.60;87.60;;;;;;5052154;28;20228;-66
2022/03/20 09:01:03;;;;;;;12.67;7.30;;;6.60;86.90;;;;;;5051810;28;20205;-66
2022/03/20 09:03:30;;;;;;;16.47;7.60;;;6.70;87.00;;;;;;5051865;28;20663;-67
2022/03/20 09:06:00;;;;;;;12.03;7.33;;;6.80;86.90;;;;;;5051592;28;20259;-67
2022/03/20 09:08:27;;;;;;;14.00;7.17;;;6.90;86.40;;;;;;5051485;28;20577;-66
2022/03/20 09:10:54;;;;;;;15.83;7.20;;;6.90;85.80;;;;;;5051449;28;20230;-66
2022/03/20 09:13:21;;;;;;;12.97;6.67;;;7.00;85.40;;;;;;5051481;28;20201;-67
2022/03/20 09:18:59;;;;;;;12.93;7.10;;;7.00;85.40;;;;;;5051588;28;20205;-67
2022/03/20 09:21:23;;;;;;;14.60;7.30;;;7.20;85.30;;;;;;5051372;28;20185;-66
2022/03/20 09:23:50;;;;;;;12.23;7.07;;;7.30;86.50;;;;;;5051771;28;20205;-67
2022/03/20 09:26:17;;;;;;;13.93;7.17;;;7.30;84.60;;;;;;5051269;28;20216;-66
2022/03/20 09:28:45;;;;;;;16.80;7.73;;;7.40;84.60;;;;;;5051481;28;20443;-67
2022/03/20 09:31:13;;;;;;;14.50;7.37;;;7.40;85.50;;;;;;5051073;28;20233;-66
2022/03/20 09:33:42;;;;;;;12.20;6.90;;;7.50;84.80;;;;;;5051349;28;20211;-66
2022/03/20 09:36:09;;;;;;;13.90;7.43;;;7.50;84.60;;;;;;5051564;28;20682;-66
2022/03/20 09:38:36;;;;;;;13.67;7.10;;;7.50;84.30;;;;;;5051406;28;20213;-66
2022/03/20 09:41:07;;;;;;;13.40;7.43;;;7.50;84.90;;;;;;5053567;28;20540;-66
2022/03/20 09:43:35;;;;;;;12.57;7.33;;;7.60;84.80;;;;;;5055471;28;20284;-66
2022/03/20 09:46:02;;;;;;;13.70;6.90;;;7.70;85.10;;;;;;5055390;28;20216;-67
2022/03/20 09:48:30;;;;;;;14.27;6.37;;;7.70;84.20;;;;;;5055156;28;20213;-68
2022/03/20 09:51:00;;;;;;;10.20;6.17;;;7.80;84.20;;;;;;5055365;28;20293;-69
2022/03/20 09:53:30;;;;;;;11.73;6.37;;;7.80;85.00;;;;;;5054949;28;20193;-67
2022/03/20 09:55:57;;;;;;;10.03;6.27;;;8.00;82.80;;;;;;5055461;28;20596;-66
2022/03/20 09:58:25;;;;;;;11.77;6.10;;;8.00;82.30;;;;;;5055240;28;20682;-65
2022/03/20 10:00:53;;;;;;;13.23;6.30;;;8.00;81.30;;;;;;5055125;28;20209;-66
2022/03/20 10:03:21;;;;;;;14.60;6.53;;;8.00;81.90;;;;;;5054959;28;20208;-67
2022/03/20 10:09:09;;;;;;;10.40;5.73;;;8.00;81.20;;;;;;5130112;27;20539;-66
2022/03/20 10:11:40;;;;;;;10.83;6.07;;;8.00;79.40;;;;;;5127565;27;20207;-67
2022/03/20 10:14:16;;;;;;;7.83;5.30;;;8.10;79.40;;;;;;5129807;28;20198;-67
2022/03/20 10:16:45;;;;;;;10.40;5.77;;;8.00;78.80;;;;;;5130486;27;20197;-66
2022/03/20 10:19:30;;;;;;;11.77;5.80;;;8.10;79.10;;;;;;5129761;28;20202;-67
2022/03/20 10:22:03;;;;;;;11.07;5.23;;;8.10;79.50;;;;;;5130203;28;20183;-67
2022/03/20 10:24:33;;;;;;;10.47;5.13;;;8.20;79.00;;;;;;5129832;27;20274;-66
2022/03/20 10:27:17;;;;;;;10.17;5.10;;;8.20;78.30;;;;;;5129651;28;20468;-65
2022/03/20 10:29:52;;;;;;;11.47;5.20;;;8.20;78.10;;;;;;5130131;27;20278;-67
2022/03/20 10:32:21;;;;;;;10.20;5.47;;;8.20;76.70;;;;;;5129844;27;20213;-67
2022/03/20 10:34:54;;;;;;;10.13;5.50;;;8.20;77.70;;;;;;5129684;28;20218;-66
2022/03/20 10:37:22;;;;;;;11.63;6.00;;;8.20;78.20;;;;;;5129553;28;20197;-67
2022/03/20 10:40:08;;;;;;;11.40;5.63;;;8.30;78.90;;;;;;5129625;28;20202;-67
2022/03/20 10:42:35;;;;;;;13.97;7.10;;;8.40;79.20;;;;;;5130002;28;20546;-68
2022/03/20 10:45:05;;;;;;;13.30;7.97;;;8.40;77.40;;;;;;5129557;28;20567;-65
2022/03/20 10:47:33;;;;;;;11.83;7.27;;;8.50;77.60;;;;;;5129185;28;20230;-66
2022/03/20 10:50:04;;;;;;;12.87;7.17;;;8.60;77.50;;;;;;5129184;28;20202;-65
2022/03/20 10:52:32;;;;;;;11.00;6.90;;;8.60;77.50;;;;;;5129191;28;20187;-66
2022/03/20 10:55:06;;;;;;;11.20;6.13;;;8.60;77.30;;;;;;5129289;28;20206;-67
2022/03/20 10:57:34;;;;;;;13.83;7.33;;;8.70;75.50;;;;;;5129471;28;20194;-66
2022/03/20 11:00:03;;;;;;;12.83;6.23;;;8.70;74.80;;;;;;5129465;27;20670;-66
2022/03/20 11:02:30;;;;;;;8.37;5.80;;;8.70;75.30;;;;;;5129163;27;20199;-67
2022/03/20 11:04:57;;;;;;;9.73;5.70;;;8.70;74.60;;;;;;5129143;27;20455;-66
2022/03/20 11:07:26;;;;;;;9.67;5.63;;;8.70;75.00;;;;;;5128942;28;20593;-66
2022/03/20 11:09:54;;;;;;;12.30;6.57;;;8.70;74.70;;;;;;5128998;27;20260;-66
2022/03/20 11:12:28;;;;;;;9.57;6.37;;;8.70;75.90;;;;;;5129514;27;20210;-66
2022/03/20 11:14:58;;;;;;;12.13;7.10;;;8.80;75.00;;;;;;5129084;28;20183;-66
2022/03/20 11:17:32;;;;;;;14.17;7.23;;;8.80;75.00;;;;;;5128872;28;20286;-67
2022/03/20 11:20:01;;;;;;;12.27;6.63;;;8.90;74.80;;;;;;5115583;28;20230;-66
2022/03/20 11:22:29;;;;;;;14.93;7.20;;;8.90;75.00;;;;;;5115039;28;20718;-66
2022/03/20 11:24:57;;;;;;;11.10;7.10;;;9.00;74.60;;;;;;5115215;28;20300;-67
2022/03/20 11:27:30;;;;;;;12.80;7.27;;;9.00;74.50;;;;;;5114977;28;20227;-66
2022/03/20 11:30:01;;;;;;;14.27;8.20;;;9.00;73.80;;;;;;5115208;28;20688;-67
2022/03/20 11:32:29;;;;;;;14.30;7.97;;;9.00;74.00;;;;;;5114937;27;20279;-67
2022/03/20 11:34:57;;;;;;;14.53;8.40;;;9.00;73.50;;;;;;5114972;28;20610;-67
2022/03/20 11:37:24;;;;;;;15.20;8.27;;;9.00;73.80;;;;;;5115228;28;20559;-66
2022/03/20 11:40:12;;;;;;;13.60;7.57;;;9.00;74.30;;;;;;5115069;28;20210;-67
2022/03/20 11:42:42;;;;;;;13.07;7.90;;;9.00;73.70;;;;;;5115080;28;20226;-68
2022/03/20 11:45:14;;;;;;;11.20;7.27;;;9.10;74.20;;;;;;5115089;28;20207;-67
2022/03/20 11:47:42;;;;;;;13.87;7.70;;;9.10;73.10;;;;;;5114964;28;20815;-67
2022/03/20 11:50:19;;;;;;;14.00;7.87;;;9.20;74.00;;;;;;5114449;28;20294;-68
2022/03/20 11:52:55;;;;;;;13.47;7.90;;;9.20;73.60;;;;;;5114939;28;20679;-67
2022/03/20 11:55:30;;;;;;;14.43;8.33;;;9.20;73.10;;;;;;5114883;28;20187;-67
2022/03/20 11:57:59;;;;;;;15.53;8.70;;;9.20;73.10;;;;;;5114690;28;20604;-67
2022/03/20 12:00:28;;;;;;;12.93;7.90;;;9.20;72.60;;;;;;5114316;28;20207;-67
2022/03/20 12:03:23;;;;;;;14.13;8.00;;;9.20;72.70;;;;;;5114586;28;20554;-66
2022/03/20 12:06:31;;;;;;;15.70;8.77;;;9.20;72.10;;;;;;5114150;28;20187;-66
2022/03/20 12:09:33;;;;;;;13.77;8.10;;;9.20;72.50;;;;;;5114739;28;20724;-67
2022/03/20 12:12:15;;;;;;;13.07;8.33;;;9.20;72.00;;;;;;5114417;28;20610;-67
2022/03/20 12:14:51;;;;;;;12.97;7.73;;;9.20;72.60;;;;;;5113814;28;20566;-69
2022/03/20 12:17:18;;;;;;;14.97;7.37;;;9.20;73.10;;;;;;5113910;28;20188;-66
2022/03/20 12:19:48;;;;;;;15.30;7.40;;;9.30;73.60;;;;;;5113975;28;20226;-66
2022/03/20 12:22:28;;;;;;;14.17;7.77;;;9.30;73.20;;;;;;5113869;28;20636;-66
2022/03/20 12:24:57;;;;;;;11.30;7.53;;;9.40;72.30;;;;;;5114138;28;20195;-67
2022/03/20 12:27:54;;;;;;;17.87;7.40;;;9.40;72.70;;;;;;5113468;28;20223;-67
2022/03/20 12:30:36;;;;;;;12.60;7.47;;;9.40;74.20;;;;;;5112950;28;20549;-66
2022/03/20 12:33:26;;;;;;;14.40;8.13;;;9.40;73.30;;;;;;5113609;28;20195;-68
2022/03/20 12:35:54;;;;;;;15.80;8.17;;;9.50;73.00;;;;;;5113991;28;20341;-67
2022/03/20 12:38:40;;;;;;;12.93;7.20;;;9.50;73.50;;;;;;5113782;28;20203;-66
2022/03/20 12:41:15;;;;;;;13.47;7.90;;;9.50;71.60;;;;;;5113215;28;20695;-68
2022/03/20 12:43:44;;;;;;;10.70;7.20;;;9.40;71.40;;;;;;5113216;28;20191;-66
2022/03/20 12:46:13;;;;;;;11.40;7.27;;;9.40;71.20;;;;;;5113502;28;20184;-66
2022/03/20 12:48:51;;;;;;;12.33;7.13;;;9.50;71.00;;;;;;5113192;28;20223;-66
2022/03/20 12:51:31;;;;;;;10.83;6.77;;;9.40;70.80;;;;;;5113438;28;20290;-66
2022/03/20 12:54:04;;;;;;;15.07;7.50;;;9.50;71.00;;;;;;5113483;28;20187;-68
2022/03/20 12:56:32;;;;;;;14.80;7.33;;;9.50;71.10;;;;;;5113310;28;20543;-67
2022/03/20 12:59:00;;;;;;;12.07;6.77;;;9.50;71.10;;;;;;5113457;28;20203;-67
2022/03/20 13:01:38;;;;;;;12.80;6.90;;;9.50;71.20;;;;;;5113154;28;20286;-66
2022/03/20 13:04:15;;;;;;;12.43;6.57;;;9.50;70.30;;;;;;5113378;28;20658;-66
2022/03/20 13:06:43;;;;;;;12.47;6.73;;;9.50;70.50;;;;;;5113113;28;20634;-68
2022/03/20 13:09:13;;;;;;;14.20;6.27;;;9.50;70.40;;;;;;5112824;28;20310;-67
2022/03/20 13:11:52;;;;;;;10.27;6.27;;;9.40;70.30;;;;;;5112886;28;20237;-67
2022/03/20 13:14:21;;;;;;;12.37;6.40;;;9.40;69.50;;;;;;5112778;28;20187;-67
2022/03/20 13:16:51;;;;;;;11.93;5.80;;;9.50;69.20;;;;;;5112734;28;20210;-66
2022/03/20 13:19:32;;;;;;;11.13;6.00;;;9.50;69.40;;;;;;5112593;28;20196;-66
2022/03/20 13:22:05;;;;;;;9.50;5.80;;;9.50;68.50;;;;;;5112854;28;20187;-66